sensor_id;sensor_type;location;lat;lon;timestamp;temperature;humidity
20881;DHT22;10600;53.096;8.802;2023-11-19T00:00:20;7.50;99.90
20881;DHT22;10600;53.096;8.802;2023-11-19T00:01:21;7.50;99.90
20881;DHT22;10600;53.096;8.802;2023-11-19T00:02:21;7.50;99.90
20881;DHT22;10600;53.096;8.802;2023-11-19T00:03:23;7.50;99.90
20881;DHT22;10600;53.096;8.802;2023-11-19T00:04:23;7.50;99.90
20881;DHT22;10600;53.096;8.802;2023-11-19T00:05:24;7.50;99.90
20881;DHT22;10600;53.096;8.802;2023-11-19T00:06:24;7.50;99.90
20881;DHT22;10600;53.096;8.802;2023-11-19T00:07:25;7.50;99.90
20881;DHT22;10600;53.096;8.802;2023-11-19T00:08:26;7.50;99.90
20881;DHT22;10600;53.096;8.802;2023-11-19T00:09:27;7.50;99.90
20881;DHT22;10600;53.096;8.802;2023-11-19T00:10:28;7.40;99.90
20881;DHT22;10600;53.096;8.802;2023-11-19T00:11:29;7.50;99.90
20881;DHT22;10600;53.096;8.802;2023-11-19T00:12:29;7.50;99.90
20881;DHT22;10600;53.096;8.802;2023-11-19T00:13:30;7.50;99.90
20881;DHT22;10600;53.096;8.802;2023-11-19T00:14:31;7.50;99.90
20881;DHT22;10600;53.096;8.802;2023-11-19T00:15:31;7.50;99.90
20881;DHT22;10600;53.096;8.802;2023-11-19T00:16:32;7.50;99.90
20881;DHT22;10600;53.096;8.802;2023-11-19T00:17:32;7.50;99.90
20881;DHT22;10600;53.096;8.802;2023-11-19T00:18:33;7.50;99.90
20881;DHT22;10600;53.096;8.802;2023-11-19T00:19:34;7.50;99.90
20881;DHT22;10600;53.096;8.802;2023-11-19T00:20:34;7.50;99.90
20881;DHT22;10600;53.096;8.802;2023-11-19T00:21:35;7.50;99.90
20881;DHT22;10600;53.096;8.802;2023-11-19T00:22:39;7.50;99.90
20881;DHT22;10600;53.096;8.802;2023-11-19T00:23:43;7.50;99.90
20881;DHT22;10600;53.096;8.802;2023-11-19T00:24:43;7.50;99.90
20881;DHT22;10600;53.096;8.802;2023-11-19T00:25:45;7.50;99.90
20881;DHT22;10600;53.096;8.802;2023-11-19T00:26:45;7.50;99.90
20881;DHT22;10600;53.096;8.802;2023-11-19T00:27:47;7.50;99.90
20881;DHT22;10600;53.096;8.802;2023-11-19T00:28:47;7.50;99.90
20881;DHT22;10600;53.096;8.802;2023-11-19T00:29:49;7.50;99.90
20881;DHT22;10600;53.096;8.802;2023-11-19T00:30:49;7.60;99.90
20881;DHT22;10600;53.096;8.802;2023-11-19T00:31:50;7.60;99.90
20881;DHT22;10600;53.096;8.802;2023-11-19T00:32:50;7.60;99.90
20881;DHT22;10600;53.096;8.802;2023-11-19T00:33:51;7.60;99.90
20881;DHT22;10600;53.096;8.802;2023-11-19T00:34:55;7.60;99.90
20881;DHT22;10600;53.096;8.802;2023-11-19T00:35:58;7.60;99.90
20881;DHT22;10600;53.096;8.802;2023-11-19T00:36:58;7.60;99.90
20881;DHT22;10600;53.096;8.802;2023-11-19T00:37:59;7.60;99.90
20881;DHT22;10600;53.096;8.802;2023-11-19T00:39:00;7.60;99.90
20881;DHT22;10600;53.096;8.802;2023-11-19T00:40:01;7.60;99.90
20881;DHT22;10600;53.096;8.802;2023-11-19T00:41:08;7.70;99.90
20881;DHT22;10600;53.096;8.802;2023-11-19T00:42:08;7.70;99.90
20881;DHT22;10600;53.096;8.802;2023-11-19T00:43:10;7.60;99.90
20881;DHT22;10600;53.096;8.802;2023-11-19T00:44:14;7.60;99.90
20881;DHT22;10600;53.096;8.802;2023-11-19T00:45:14;7.70;99.90
20881;DHT22;10600;53.096;8.802;2023-11-19T00:46:18;7.70;99.90
20881;DHT22;10600;53.096;8.802;2023-11-19T00:47:19;7.70;99.90
20881;DHT22;10600;53.096;8.802;2023-11-19T00:48:22;7.70;99.90
20881;DHT22;10600;53.096;8.802;2023-11-19T00:49:23;7.70;99.90
20881;DHT22;10600;53.096;8.802;2023-11-19T00:50:23;7.70;99.90
20881;DHT22;10600;53.096;8.802;2023-11-19T00:51:24;7.70;99.90
20881;DHT22;10600;53.096;8.802;2023-11-19T00:52:25;7.70;99.90
20881;DHT22;10600;53.096;8.802;2023-11-19T00:53:25;7.70;99.90
20881;DHT22;10600;53.096;8.802;2023-11-19T00:54:26;7.70;99.90
20881;DHT22;10600;53.096;8.802;2023-11-19T00:55:27;7.70;99.90
20881;DHT22;10600;53.096;8.802;2023-11-19T00:56:27;7.70;99.90
20881;DHT22;10600;53.096;8.802;2023-11-19T00:57:28;7.70;99.90
20881;DHT22;10600;53.096;8.802;2023-11-19T00:58:29;7.70;99.90
20881;DHT22;10600;53.096;8.802;2023-11-19T00:59:32;7.70;99.90
20881;DHT22;10600;53.096;8.802;2023-11-19T01:00:33;7.70;99.90
20881;DHT22;10600;53.096;8.802;2023-11-19T01:01:36;7.70;99.90
20881;DHT22;10600;53.096;8.802;2023-11-19T01:02:36;7.70;99.90
20881;DHT22;10600;53.096;8.802;2023-11-19T01:03:37;7.80;99.90
20881;DHT22;10600;53.096;8.802;2023-11-19T01:04:47;7.80;99.90
20881;DHT22;10600;53.096;8.802;2023-11-19T01:05:47;7.80;99.90
20881;DHT22;10600;53.096;8.802;2023-11-19T01:06:51;7.80;99.90
20881;DHT22;10600;53.096;8.802;2023-11-19T01:07:51;7.80;99.90
20881;DHT22;10600;53.096;8.802;2023-11-19T01:08:54;7.80;99.90
20881;DHT22;10600;53.096;8.802;2023-11-19T01:09:55;7.90;99.90
20881;DHT22;10600;53.096;8.802;2023-11-19T01:10:55;7.80;99.90
20881;DHT22;10600;53.096;8.802;2023-11-19T01:11:56;7.80;99.90
20881;DHT22;10600;53.096;8.802;2023-11-19T01:12:57;7.90;99.90
20881;DHT22;10600;53.096;8.802;2023-11-19T01:13:57;7.90;99.90
20881;DHT22;10600;53.096;8.802;2023-11-19T01:14:58;7.90;99.90
20881;DHT22;10600;53.096;8.802;2023-11-19T01:15:58;7.90;99.90
20881;DHT22;10600;53.096;8.802;2023-11-19T01:16:59;7.90;99.90
20881;DHT22;10600;53.096;8.802;2023-11-19T01:18:01;7.90;99.90
20881;DHT22;10600;53.096;8.802;2023-11-19T01:19:05;8.00;99.90
20881;DHT22;10600;53.096;8.802;2023-11-19T01:20:06;8.00;99.90
20881;DHT22;10600;53.096;8.802;2023-11-19T01:21:06;7.90;99.90
20881;DHT22;10600;53.096;8.802;2023-11-19T01:22:07;8.00;99.90
20881;DHT22;10600;53.096;8.802;2023-11-19T01:23:08;8.00;99.90
20881;DHT22;10600;53.096;8.802;2023-11-19T01:24:08;8.00;99.90
20881;DHT22;10600;53.096;8.802;2023-11-19T01:25:10;8.00;99.90
20881;DHT22;10600;53.096;8.802;2023-11-19T01:26:11;8.00;99.90
20881;DHT22;10600;53.096;8.802;2023-11-19T01:27:15;8.00;99.90
20881;DHT22;10600;53.096;8.802;2023-11-19T01:28:16;8.00;99.90
20881;DHT22;10600;53.096;8.802;2023-11-19T01:29:16;8.00;99.90
20881;DHT22;10600;53.096;8.802;2023-11-19T01:30:17;8.10;99.90
20881;DHT22;10600;53.096;8.802;2023-11-19T01:31:17;8.10;99.90
20881;DHT22;10600;53.096;8.802;2023-11-19T01:32:18;8.10;99.90
20881;DHT22;10600;53.096;8.802;2023-11-19T01:33:19;8.10;99.90
20881;DHT22;10600;53.096;8.802;2023-11-19T01:34:19;8.10;99.90
20881;DHT22;10600;53.096;8.802;2023-11-19T01:35:20;8.10;99.90
20881;DHT22;10600;53.096;8.802;2023-11-19T01:36:20;8.20;99.90
20881;DHT22;10600;53.096;8.802;2023-11-19T01:37:21;8.10;99.90
20881;DHT22;10600;53.096;8.802;2023-11-19T01:38:21;8.20;99.90
20881;DHT22;10600;53.096;8.802;2023-11-19T01:39:22;8.20;99.90
20881;DHT22;10600;53.096;8.802;2023-11-19T01:40:23;8.20;99.90
20881;DHT22;10600;53.096;8.802;2023-11-19T01:41:23;8.20;99.90
20881;DHT22;10600;53.096;8.802;2023-11-19T01:42:25;8.30;99.90
20881;DHT22;10600;53.096;8.802;2023-11-19T01:43:35;8.30;99.90
20881;DHT22;10600;53.096;8.802;2023-11-19T01:44:35;8.30;99.90
20881;DHT22;10600;53.096;8.802;2023-11-19T01:45:36;8.30;99.90
20881;DHT22;10600;53.096;8.802;2023-11-19T01:46:37;8.30;99.90
20881;DHT22;10600;53.096;8.802;2023-11-19T01:47:39;8.30;99.90
20881;DHT22;10600;53.096;8.802;2023-11-19T01:48:44;8.30;99.90
20881;DHT22;10600;53.096;8.802;2023-11-19T01:49:45;8.30;99.90
20881;DHT22;10600;53.096;8.802;2023-11-19T01:50:45;8.40;99.90
20881;DHT22;10600;53.096;8.802;2023-11-19T01:51:47;8.40;99.90
20881;DHT22;10600;53.096;8.802;2023-11-19T01:52:48;8.40;99.90
20881;DHT22;10600;53.096;8.802;2023-11-19T01:53:49;8.40;99.90
20881;DHT22;10600;53.096;8.802;2023-11-19T01:54:50;8.40;99.90
20881;DHT22;10600;53.096;8.802;2023-11-19T01:55:52;8.50;99.90
20881;DHT22;10600;53.096;8.802;2023-11-19T01:56:53;8.50;99.90
20881;DHT22;10600;53.096;8.802;2023-11-19T01:57:59;8.50;99.90
20881;DHT22;10600;53.096;8.802;2023-11-19T01:59:02;8.50;99.90
20881;DHT22;10600;53.096;8.802;2023-11-19T02:00:04;8.50;99.90
20881;DHT22;10600;53.096;8.802;2023-11-19T02:01:06;8.60;99.90
20881;DHT22;10600;53.096;8.802;2023-11-19T02:02:07;8.60;99.90
20881;DHT22;10600;53.096;8.802;2023-11-19T02:03:08;8.60;99.90
20881;DHT22;10600;53.096;8.802;2023-11-19T02:04:09;8.60;99.90
20881;DHT22;10600;53.096;8.802;2023-11-19T02:05:12;8.60;99.90
20881;DHT22;10600;53.096;8.802;2023-11-19T02:06:14;8.70;99.90
20881;DHT22;10600;53.096;8.802;2023-11-19T02:07:15;8.70;99.90
20881;DHT22;10600;53.096;8.802;2023-11-19T02:08:17;8.70;99.90
20881;DHT22;10600;53.096;8.802;2023-11-19T02:09:18;8.70;99.90
20881;DHT22;10600;53.096;8.802;2023-11-19T02:10:19;8.80;99.90
20881;DHT22;10600;53.096;8.802;2023-11-19T02:11:20;8.80;99.90
20881;DHT22;10600;53.096;8.802;2023-11-19T02:12:20;8.80;99.90
20881;DHT22;10600;53.096;8.802;2023-11-19T02:13:21;8.80;99.90
20881;DHT22;10600;53.096;8.802;2023-11-19T02:14:25;8.90;99.90
20881;DHT22;10600;53.096;8.802;2023-11-19T02:15:26;8.90;99.90
20881;DHT22;10600;53.096;8.802;2023-11-19T02:16:27;8.90;99.90
20881;DHT22;10600;53.096;8.802;2023-11-19T02:17:29;9.00;99.90
20881;DHT22;10600;53.096;8.802;2023-11-19T02:18:34;9.00;99.90
20881;DHT22;10600;53.096;8.802;2023-11-19T02:19:35;9.10;99.90
20881;DHT22;10600;53.096;8.802;2023-11-19T02:20:35;9.10;99.90
20881;DHT22;10600;53.096;8.802;2023-11-19T02:21:37;9.10;99.90
20881;DHT22;10600;53.096;8.802;2023-11-19T02:22:37;9.10;99.90
20881;DHT22;10600;53.096;8.802;2023-11-19T02:23:38;9.20;99.90
20881;DHT22;10600;53.096;8.802;2023-11-19T02:24:39;9.20;99.90
20881;DHT22;10600;53.096;8.802;2023-11-19T02:25:40;9.20;99.90
20881;DHT22;10600;53.096;8.802;2023-11-19T02:26:56;9.30;99.90
20881;DHT22;10600;53.096;8.802;2023-11-19T02:28:01;9.30;99.90
20881;DHT22;10600;53.096;8.802;2023-11-19T02:29:02;9.40;99.90
20881;DHT22;10600;53.096;8.802;2023-11-19T02:30:03;9.40;99.90
20881;DHT22;10600;53.096;8.802;2023-11-19T02:31:06;9.40;99.90
20881;DHT22;10600;53.096;8.802;2023-11-19T02:32:09;9.50;99.90
20881;DHT22;10600;53.096;8.802;2023-11-19T02:33:10;9.50;99.90
20881;DHT22;10600;53.096;8.802;2023-11-19T02:34:10;9.60;99.90
20881;DHT22;10600;53.096;8.802;2023-11-19T02:35:12;9.60;99.90
20881;DHT22;10600;53.096;8.802;2023-11-19T02:36:13;9.60;99.90
20881;DHT22;10600;53.096;8.802;2023-11-19T02:37:14;9.70;99.90
20881;DHT22;10600;53.096;8.802;2023-11-19T02:38:15;9.70;99.90
20881;DHT22;10600;53.096;8.802;2023-11-19T02:39:15;9.70;99.90
20881;DHT22;10600;53.096;8.802;2023-11-19T02:40:21;9.70;99.90
20881;DHT22;10600;53.096;8.802;2023-11-19T02:41:24;9.70;99.90
20881;DHT22;10600;53.096;8.802;2023-11-19T02:42:25;9.80;99.90
20881;DHT22;10600;53.096;8.802;2023-11-19T02:43:25;9.80;99.90
20881;DHT22;10600;53.096;8.802;2023-11-19T02:44:26;9.80;99.90
20881;DHT22;10600;53.096;8.802;2023-11-19T02:45:30;9.90;99.90
20881;DHT22;10600;53.096;8.802;2023-11-19T02:46:31;9.90;99.90
20881;DHT22;10600;53.096;8.802;2023-11-19T02:47:32;9.90;99.90
20881;DHT22;10600;53.096;8.802;2023-11-19T02:48:34;10.00;99.90
20881;DHT22;10600;53.096;8.802;2023-11-19T02:49:38;10.00;99.90
20881;DHT22;10600;53.096;8.802;2023-11-19T02:50:38;10.10;99.90
20881;DHT22;10600;53.096;8.802;2023-11-19T02:51:39;10.10;99.90
20881;DHT22;10600;53.096;8.802;2023-11-19T02:52:44;10.10;99.90
20881;DHT22;10600;53.096;8.802;2023-11-19T02:53:46;10.20;99.90
20881;DHT22;10600;53.096;8.802;2023-11-19T02:54:49;10.20;99.90
20881;DHT22;10600;53.096;8.802;2023-11-19T02:55:49;10.20;99.90
20881;DHT22;10600;53.096;8.802;2023-11-19T02:56:50;10.20;99.90
20881;DHT22;10600;53.096;8.802;2023-11-19T02:57:56;10.30;99.90
20881;DHT22;10600;53.096;8.802;2023-11-19T02:58:59;10.30;99.90
20881;DHT22;10600;53.096;8.802;2023-11-19T02:59:59;10.30;99.90
20881;DHT22;10600;53.096;8.802;2023-11-19T03:01:00;10.40;99.90
20881;DHT22;10600;53.096;8.802;2023-11-19T03:02:10;10.40;99.90
20881;DHT22;10600;53.096;8.802;2023-11-19T03:03:16;10.40;99.90
20881;DHT22;10600;53.096;8.802;2023-11-19T03:04:22;10.40;99.90
20881;DHT22;10600;53.096;8.802;2023-11-19T03:05:24;10.50;99.90
20881;DHT22;10600;53.096;8.802;2023-11-19T03:06:25;10.50;99.90
20881;DHT22;10600;53.096;8.802;2023-11-19T03:07:26;10.50;99.90
20881;DHT22;10600;53.096;8.802;2023-11-19T03:08:26;10.50;99.90
20881;DHT22;10600;53.096;8.802;2023-11-19T03:09:27;10.50;99.90
20881;DHT22;10600;53.096;8.802;2023-11-19T03:10:29;10.50;99.90
20881;DHT22;10600;53.096;8.802;2023-11-19T03:11:30;10.60;99.90
20881;DHT22;10600;53.096;8.802;2023-11-19T03:12:30;10.60;99.90
20881;DHT22;10600;53.096;8.802;2023-11-19T03:13:31;10.60;99.90
20881;DHT22;10600;53.096;8.802;2023-11-19T03:14:33;10.60;99.90
20881;DHT22;10600;53.096;8.802;2023-11-19T03:15:34;10.60;99.90
20881;DHT22;10600;53.096;8.802;2023-11-19T03:16:35;10.60;99.90
20881;DHT22;10600;53.096;8.802;2023-11-19T03:17:38;10.60;99.90
20881;DHT22;10600;53.096;8.802;2023-11-19T03:18:39;10.70;99.90
20881;DHT22;10600;53.096;8.802;2023-11-19T03:19:40;10.70;99.90
20881;DHT22;10600;53.096;8.802;2023-11-19T03:20:40;10.70;99.90
20881;DHT22;10600;53.096;8.802;2023-11-19T03:21:41;10.70;99.90
20881;DHT22;10600;53.096;8.802;2023-11-19T03:22:42;10.70;99.90
20881;DHT22;10600;53.096;8.802;2023-11-19T03:23:42;10.70;99.90
20881;DHT22;10600;53.096;8.802;2023-11-19T03:24:43;10.80;99.90
20881;DHT22;10600;53.096;8.802;2023-11-19T03:25:44;10.80;99.90
20881;DHT22;10600;53.096;8.802;2023-11-19T03:26:49;10.80;99.90
20881;DHT22;10600;53.096;8.802;2023-11-19T03:27:50;10.80;99.90
20881;DHT22;10600;53.096;8.802;2023-11-19T03:28:51;10.80;99.90
20881;DHT22;10600;53.096;8.802;2023-11-19T03:29:51;10.80;99.90
20881;DHT22;10600;53.096;8.802;2023-11-19T03:30:52;10.80;99.90
20881;DHT22;10600;53.096;8.802;2023-11-19T03:31:53;10.80;99.90
20881;DHT22;10600;53.096;8.802;2023-11-19T03:32:55;10.80;99.90
20881;DHT22;10600;53.096;8.802;2023-11-19T03:33:58;10.80;99.90
20881;DHT22;10600;53.096;8.802;2023-11-19T03:34:59;10.80;99.90
20881;DHT22;10600;53.096;8.802;2023-11-19T03:35:59;10.80;99.90
20881;DHT22;10600;53.096;8.802;2023-11-19T03:37:00;10.80;99.90
20881;DHT22;10600;53.096;8.802;2023-11-19T03:38:00;10.80;99.90
20881;DHT22;10600;53.096;8.802;2023-11-19T03:39:02;10.90;99.90
20881;DHT22;10600;53.096;8.802;2023-11-19T03:40:04;10.90;99.90
20881;DHT22;10600;53.096;8.802;2023-11-19T03:41:11;10.90;99.90
20881;DHT22;10600;53.096;8.802;2023-11-19T03:42:12;10.90;99.90
20881;DHT22;10600;53.096;8.802;2023-11-19T03:43:13;10.90;99.90
20881;DHT22;10600;53.096;8.802;2023-11-19T03:44:14;10.90;99.90
20881;DHT22;10600;53.096;8.802;2023-11-19T03:45:15;10.90;99.90
20881;DHT22;10600;53.096;8.802;2023-11-19T03:46:22;10.90;99.90
20881;DHT22;10600;53.096;8.802;2023-11-19T03:47:23;10.90;99.90
20881;DHT22;10600;53.096;8.802;2023-11-19T03:48:24;10.90;99.90
20881;DHT22;10600;53.096;8.802;2023-11-19T03:49:24;10.90;99.90
20881;DHT22;10600;53.096;8.802;2023-11-19T03:50:25;10.90;99.90
20881;DHT22;10600;53.096;8.802;2023-11-19T03:51:28;11.00;99.90
20881;DHT22;10600;53.096;8.802;2023-11-19T03:52:29;10.90;99.90
20881;DHT22;10600;53.096;8.802;2023-11-19T03:53:30;10.90;99.90
20881;DHT22;10600;53.096;8.802;2023-11-19T03:54:31;11.00;99.90
20881;DHT22;10600;53.096;8.802;2023-11-19T03:55:33;11.00;99.90
20881;DHT22;10600;53.096;8.802;2023-11-19T03:56:33;11.00;99.90
20881;DHT22;10600;53.096;8.802;2023-11-19T03:57:35;11.00;99.90
20881;DHT22;10600;53.096;8.802;2023-11-19T03:58:35;11.00;99.90
20881;DHT22;10600;53.096;8.802;2023-11-19T03:59:36;11.00;99.90
20881;DHT22;10600;53.096;8.802;2023-11-19T04:00:37;11.00;99.90
20881;DHT22;10600;53.096;8.802;2023-11-19T04:01:37;11.00;99.90
20881;DHT22;10600;53.096;8.802;2023-11-19T04:02:39;11.10;99.90
20881;DHT22;10600;53.096;8.802;2023-11-19T04:03:39;11.10;99.90
20881;DHT22;10600;53.096;8.802;2023-11-19T04:04:40;11.10;99.90
20881;DHT22;10600;53.096;8.802;2023-11-19T04:05:40;11.10;99.90
20881;DHT22;10600;53.096;8.802;2023-11-19T04:06:41;11.10;99.90
20881;DHT22;10600;53.096;8.802;2023-11-19T04:07:44;11.10;99.90
20881;DHT22;10600;53.096;8.802;2023-11-19T04:08:45;11.10;99.90
20881;DHT22;10600;53.096;8.802;2023-11-19T04:09:45;11.10;99.90
20881;DHT22;10600;53.096;8.802;2023-11-19T04:10:47;11.20;99.90
20881;DHT22;10600;53.096;8.802;2023-11-19T04:11:48;11.10;99.90
20881;DHT22;10600;53.096;8.802;2023-11-19T04:12:48;11.20;99.90
20881;DHT22;10600;53.096;8.802;2023-11-19T04:13:49;11.20;99.90
20881;DHT22;10600;53.096;8.802;2023-11-19T04:14:49;11.20;99.90
20881;DHT22;10600;53.096;8.802;2023-11-19T04:15:50;11.20;99.90
20881;DHT22;10600;53.096;8.802;2023-11-19T04:16:51;11.20;99.90
20881;DHT22;10600;53.096;8.802;2023-11-19T04:17:52;11.20;99.90
20881;DHT22;10600;53.096;8.802;2023-11-19T04:18:52;11.20;99.90
20881;DHT22;10600;53.096;8.802;2023-11-19T04:19:53;11.20;99.90
20881;DHT22;10600;53.096;8.802;2023-11-19T04:20:53;11.30;99.90
20881;DHT22;10600;53.096;8.802;2023-11-19T04:21:54;11.20;99.90
20881;DHT22;10600;53.096;8.802;2023-11-19T04:22:54;11.20;99.90
20881;DHT22;10600;53.096;8.802;2023-11-19T04:23:55;11.30;99.90
20881;DHT22;10600;53.096;8.802;2023-11-19T04:24:56;11.30;99.90
20881;DHT22;10600;53.096;8.802;2023-11-19T04:25:56;11.30;99.90
20881;DHT22;10600;53.096;8.802;2023-11-19T04:26:57;11.30;99.90
20881;DHT22;10600;53.096;8.802;2023-11-19T04:27:58;11.30;99.90
20881;DHT22;10600;53.096;8.802;2023-11-19T04:28:59;11.30;99.90
20881;DHT22;10600;53.096;8.802;2023-11-19T04:29:59;11.30;99.90
20881;DHT22;10600;53.096;8.802;2023-11-19T04:31:02;11.30;99.90
20881;DHT22;10600;53.096;8.802;2023-11-19T04:32:04;11.30;99.90
20881;DHT22;10600;53.096;8.802;2023-11-19T04:33:05;11.30;99.90
20881;DHT22;10600;53.096;8.802;2023-11-19T04:34:06;11.30;99.90
20881;DHT22;10600;53.096;8.802;2023-11-19T04:35:07;11.30;99.90
20881;DHT22;10600;53.096;8.802;2023-11-19T04:36:09;11.40;99.90
20881;DHT22;10600;53.096;8.802;2023-11-19T04:37:10;11.30;99.90
20881;DHT22;10600;53.096;8.802;2023-11-19T04:38:11;11.40;99.90
20881;DHT22;10600;53.096;8.802;2023-11-19T04:39:11;11.40;99.90
20881;DHT22;10600;53.096;8.802;2023-11-19T04:40:13;11.40;99.90
20881;DHT22;10600;53.096;8.802;2023-11-19T04:41:13;11.40;99.90
20881;DHT22;10600;53.096;8.802;2023-11-19T04:42:14;11.40;99.90
20881;DHT22;10600;53.096;8.802;2023-11-19T04:43:17;11.40;99.90
20881;DHT22;10600;53.096;8.802;2023-11-19T04:44:17;11.40;99.90
20881;DHT22;10600;53.096;8.802;2023-11-19T04:45:18;11.40;99.90
20881;DHT22;10600;53.096;8.802;2023-11-19T04:46:18;11.40;99.90
20881;DHT22;10600;53.096;8.802;2023-11-19T04:47:19;11.40;99.90
20881;DHT22;10600;53.096;8.802;2023-11-19T04:48:20;11.40;99.90
20881;DHT22;10600;53.096;8.802;2023-11-19T04:49:20;11.40;99.90
20881;DHT22;10600;53.096;8.802;2023-11-19T04:50:23;11.50;99.90
20881;DHT22;10600;53.096;8.802;2023-11-19T04:51:24;11.50;99.90
20881;DHT22;10600;53.096;8.802;2023-11-19T04:52:24;11.50;99.90
20881;DHT22;10600;53.096;8.802;2023-11-19T04:53:25;11.50;99.90
20881;DHT22;10600;53.096;8.802;2023-11-19T04:54:25;11.50;99.90
20881;DHT22;10600;53.096;8.802;2023-11-19T04:55:26;11.50;99.90
20881;DHT22;10600;53.096;8.802;2023-11-19T04:56:26;11.50;99.90
20881;DHT22;10600;53.096;8.802;2023-11-19T04:57:27;11.50;99.90
20881;DHT22;10600;53.096;8.802;2023-11-19T04:58:29;11.50;99.90
20881;DHT22;10600;53.096;8.802;2023-11-19T04:59:29;11.50;99.90
20881;DHT22;10600;53.096;8.802;2023-11-19T05:00:30;11.50;99.90
20881;DHT22;10600;53.096;8.802;2023-11-19T05:01:34;11.50;99.90
20881;DHT22;10600;53.096;8.802;2023-11-19T05:02:34;11.50;99.90
20881;DHT22;10600;53.096;8.802;2023-11-19T05:03:35;11.40;99.90
20881;DHT22;10600;53.096;8.802;2023-11-19T05:04:36;11.40;99.90
20881;DHT22;10600;53.096;8.802;2023-11-19T05:05:38;11.40;99.90
20881;DHT22;10600;53.096;8.802;2023-11-19T05:06:38;11.40;99.90
20881;DHT22;10600;53.096;8.802;2023-11-19T05:07:39;11.50;99.90
20881;DHT22;10600;53.096;8.802;2023-11-19T05:08:39;11.50;99.90
20881;DHT22;10600;53.096;8.802;2023-11-19T05:09:40;11.50;99.90
20881;DHT22;10600;53.096;8.802;2023-11-19T05:10:44;11.50;99.90
20881;DHT22;10600;53.096;8.802;2023-11-19T05:11:45;11.50;99.90
20881;DHT22;10600;53.096;8.802;2023-11-19T05:12:45;11.50;99.90
20881;DHT22;10600;53.096;8.802;2023-11-19T05:13:46;11.50;99.90
20881;DHT22;10600;53.096;8.802;2023-11-19T05:14:46;11.50;99.90
20881;DHT22;10600;53.096;8.802;2023-11-19T05:15:50;11.50;99.90
20881;DHT22;10600;53.096;8.802;2023-11-19T05:16:50;11.60;99.90
20881;DHT22;10600;53.096;8.802;2023-11-19T05:17:51;11.60;99.90
20881;DHT22;10600;53.096;8.802;2023-11-19T05:18:52;11.60;99.90
20881;DHT22;10600;53.096;8.802;2023-11-19T05:19:52;11.60;99.90
20881;DHT22;10600;53.096;8.802;2023-11-19T05:20:56;11.60;99.90
20881;DHT22;10600;53.096;8.802;2023-11-19T05:21:57;11.60;99.90
20881;DHT22;10600;53.096;8.802;2023-11-19T05:22:58;11.60;99.90
20881;DHT22;10600;53.096;8.802;2023-11-19T05:24:00;11.70;99.90
20881;DHT22;10600;53.096;8.802;2023-11-19T05:25:01;11.70;99.90
20881;DHT22;10600;53.096;8.802;2023-11-19T05:26:02;11.70;99.90
20881;DHT22;10600;53.096;8.802;2023-11-19T05:27:03;11.70;99.90
20881;DHT22;10600;53.096;8.802;2023-11-19T05:28:04;11.70;99.90
20881;DHT22;10600;53.096;8.802;2023-11-19T05:29:04;11.70;99.90
20881;DHT22;10600;53.096;8.802;2023-11-19T05:30:06;11.70;99.90
20881;DHT22;10600;53.096;8.802;2023-11-19T05:31:07;11.70;99.90
20881;DHT22;10600;53.096;8.802;2023-11-19T05:32:08;11.70;99.90
20881;DHT22;10600;53.096;8.802;2023-11-19T05:33:08;11.70;99.90
20881;DHT22;10600;53.096;8.802;2023-11-19T05:34:09;11.70;99.90
20881;DHT22;10600;53.096;8.802;2023-11-19T05:35:11;11.70;99.90
20881;DHT22;10600;53.096;8.802;2023-11-19T05:36:12;11.80;99.90
20881;DHT22;10600;53.096;8.802;2023-11-19T05:37:15;11.70;99.90
20881;DHT22;10600;53.096;8.802;2023-11-19T05:38:16;11.80;99.90
20881;DHT22;10600;53.096;8.802;2023-11-19T05:39:17;11.80;99.90
20881;DHT22;10600;53.096;8.802;2023-11-19T05:40:19;11.80;99.90
20881;DHT22;10600;53.096;8.802;2023-11-19T05:41:20;11.80;99.90
20881;DHT22;10600;53.096;8.802;2023-11-19T05:42:22;11.80;99.90
20881;DHT22;10600;53.096;8.802;2023-11-19T05:43:24;11.80;99.90
20881;DHT22;10600;53.096;8.802;2023-11-19T05:44:24;11.80;99.90
20881;DHT22;10600;53.096;8.802;2023-11-19T05:45:25;11.80;99.90
20881;DHT22;10600;53.096;8.802;2023-11-19T05:46:25;11.80;99.90
20881;DHT22;10600;53.096;8.802;2023-11-19T05:47:27;11.90;99.90
20881;DHT22;10600;53.096;8.802;2023-11-19T05:48:27;11.90;99.90
20881;DHT22;10600;53.096;8.802;2023-11-19T05:49:29;11.90;99.90
20881;DHT22;10600;53.096;8.802;2023-11-19T05:50:29;11.90;99.90
20881;DHT22;10600;53.096;8.802;2023-11-19T05:51:30;11.90;99.90
20881;DHT22;10600;53.096;8.802;2023-11-19T05:52:31;11.90;99.90
20881;DHT22;10600;53.096;8.802;2023-11-19T05:53:33;11.90;99.90
20881;DHT22;10600;53.096;8.802;2023-11-19T05:54:34;11.80;99.90
20881;DHT22;10600;53.096;8.802;2023-11-19T05:55:38;11.90;99.90
20881;DHT22;10600;53.096;8.802;2023-11-19T05:56:48;11.80;99.90
20881;DHT22;10600;53.096;8.802;2023-11-19T05:57:49;11.90;99.90
20881;DHT22;10600;53.096;8.802;2023-11-19T05:58:52;11.80;99.90
20881;DHT22;10600;53.096;8.802;2023-11-19T05:59:52;11.80;99.90
20881;DHT22;10600;53.096;8.802;2023-11-19T06:00:55;11.90;99.90
20881;DHT22;10600;53.096;8.802;2023-11-19T06:01:57;11.90;99.90
20881;DHT22;10600;53.096;8.802;2023-11-19T06:02:58;11.90;99.90
20881;DHT22;10600;53.096;8.802;2023-11-19T06:03:58;11.90;99.90
20881;DHT22;10600;53.096;8.802;2023-11-19T06:05:01;11.90;99.90
20881;DHT22;10600;53.096;8.802;2023-11-19T06:06:02;11.90;99.90
20881;DHT22;10600;53.096;8.802;2023-11-19T06:07:02;11.90;99.90
20881;DHT22;10600;53.096;8.802;2023-11-19T06:08:03;11.90;99.90
20881;DHT22;10600;53.096;8.802;2023-11-19T06:09:04;11.90;99.90
20881;DHT22;10600;53.096;8.802;2023-11-19T06:10:06;11.90;99.90
20881;DHT22;10600;53.096;8.802;2023-11-19T06:11:10;11.90;99.90
20881;DHT22;10600;53.096;8.802;2023-11-19T06:12:15;11.90;99.90
20881;DHT22;10600;53.096;8.802;2023-11-19T06:13:15;11.90;99.90
20881;DHT22;10600;53.096;8.802;2023-11-19T06:14:16;11.90;99.90
20881;DHT22;10600;53.096;8.802;2023-11-19T06:15:17;11.80;99.90
20881;DHT22;10600;53.096;8.802;2023-11-19T06:16:17;11.80;99.90
20881;DHT22;10600;53.096;8.802;2023-11-19T06:17:18;11.80;99.90
20881;DHT22;10600;53.096;8.802;2023-11-19T06:18:18;11.80;99.90
20881;DHT22;10600;53.096;8.802;2023-11-19T06:19:20;11.70;99.90
20881;DHT22;10600;53.096;8.802;2023-11-19T06:20:20;11.70;99.90
20881;DHT22;10600;53.096;8.802;2023-11-19T06:21:21;11.60;99.90
20881;DHT22;10600;53.096;8.802;2023-11-19T06:22:22;11.60;99.90
20881;DHT22;10600;53.096;8.802;2023-11-19T06:23:22;11.60;99.90
20881;DHT22;10600;53.096;8.802;2023-11-19T06:24:23;11.60;99.90
20881;DHT22;10600;53.096;8.802;2023-11-19T06:25:23;11.60;99.90
20881;DHT22;10600;53.096;8.802;2023-11-19T06:26:27;11.60;99.90
20881;DHT22;10600;53.096;8.802;2023-11-19T06:27:27;11.60;99.90
20881;DHT22;10600;53.096;8.802;2023-11-19T06:28:28;11.60;99.90
20881;DHT22;10600;53.096;8.802;2023-11-19T06:29:29;11.60;99.90
20881;DHT22;10600;53.096;8.802;2023-11-19T06:30:29;11.60;99.90